sensor_id;sensor_type;location;lat;lon;timestamp;pressure;altitude;pressure_sealevel;temperature;humidity
79242;BME280;68670;48.720;9.118;2023-04-01T00:01:42;95533.53;;;6.94;78.55
79242;BME280;68670;48.720;9.118;2023-04-01T00:04:07;95518.34;;;6.98;78.40
79242;BME280;68670;48.720;9.118;2023-04-01T00:06:32;95526.06;;;7.06;77.76
79242;BME280;68670;48.720;9.118;2023-04-01T00:09:00;95531.56;;;7.11;78.16
79242;BME280;68670;48.720;9.118;2023-04-01T00:11:25;95527.19;;;7.10;77.64
79242;BME280;68670;48.720;9.118;2023-04-01T00:13:52;95529.94;;;7.15;77.18
79242;BME280;68670;48.720;9.118;2023-04-01T00:16:17;95531.56;;;7.11;77.36
79242;BME280;68670;48.720;9.118;2023-04-01T00:18:45;95525.56;;;7.09;77.71
79242;BME280;68670;48.720;9.118;2023-04-01T00:21:12;95532.66;;;7.10;77.96
79242;BME280;68670;48.720;9.118;2023-04-01T00:23:37;95523.84;;;7.03;77.86
79242;BME280;68670;48.720;9.118;2023-04-01T00:26:03;95528.03;;;7.11;77.52
79242;BME280;68670;48.720;9.118;2023-04-01T00:28:33;95519.59;;;7.12;77.44
79242;BME280;68670;48.720;9.118;2023-04-01T00:31:04;95529.16;;;7.15;77.31
79242;BME280;68670;48.720;9.118;2023-04-01T00:33:34;95527.19;;;7.10;77.64
79242;BME280;68670;48.720;9.118;2023-04-01T00:38:35;95530.50;;;7.12;77.63
79242;BME280;68670;48.720;9.118;2023-04-01T00:41:01;95532.66;;;7.15;77.53
79242;BME280;68670;48.720;9.118;2023-04-01T00:43:26;95529.28;;;7.03;78.83
79242;BME280;68670;48.720;9.118;2023-04-01T00:45:52;95535.88;;;7.07;78.47
79242;BME280;68670;48.720;9.118;2023-04-01T00:48:18;95533.50;;;7.16;78.36
79242;BME280;68670;48.720;9.118;2023-04-01T00:50:49;95545.63;;;7.03;79.68
79242;BME280;68670;48.720;9.118;2023-04-01T00:53:17;95537.63;;;7.18;78.34
79242;BME280;68670;48.720;9.118;2023-04-01T00:55:49;95527.75;;;7.12;79.05
79242;BME280;68670;48.720;9.118;2023-04-01T00:58:24;95546.28;;;7.15;79.15
79242;BME280;68670;48.720;9.118;2023-04-01T01:00:54;95546.19;;;7.05;79.26
79242;BME280;68670;48.720;9.118;2023-04-01T01:03:20;95542.56;;;6.99;80.03
79242;BME280;68670;48.720;9.118;2023-04-01T01:08:22;95541.19;;;6.97;80.24
79242;BME280;68670;48.720;9.118;2023-04-01T01:10:55;95538.41;;;6.92;80.69
79242;BME280;68670;48.720;9.118;2023-04-01T01:14:07;95539.03;;;6.99;80.76
79242;BME280;68670;48.720;9.118;2023-04-01T01:16:12;95542.75;;;6.93;81.37
79242;BME280;68670;48.720;9.118;2023-04-01T01:19:09;95539.78;;;6.94;80.57
79242;BME280;68670;48.720;9.118;2023-04-01T01:27:00;95535.59;;;6.87;81.31
79242;BME280;68670;48.720;9.118;2023-04-01T01:38:04;95548.22;;;6.93;81.07
79242;BME280;68670;48.720;9.118;2023-04-01T01:40:31;95549.84;;;6.94;80.31
79242;BME280;68670;48.720;9.118;2023-04-01T01:43:04;95540.47;;;6.85;81.33
79242;BME280;68670;48.720;9.118;2023-04-01T01:45:35;95541.50;;;6.79;81.20
79242;BME280;68670;48.720;9.118;2023-04-01T01:48:04;95543.97;;;6.80;81.67
79242;BME280;68670;48.720;9.118;2023-04-01T01:50:34;95543.16;;;6.80;81.60
79242;BME280;68670;48.720;9.118;2023-04-01T01:53:04;95544.28;;;6.84;81.57
79242;BME280;68670;48.720;9.118;2023-04-01T01:55:32;95541.03;;;6.87;81.42
79242;BME280;68670;48.720;9.118;2023-04-01T01:58:25;95538.97;;;6.94;80.45
79242;BME280;68670;48.720;9.118;2023-04-01T02:00:55;95529.72;;;6.95;80.60
79242;BME280;68670;48.720;9.118;2023-04-01T02:03:26;95534.66;;;6.98;80.13
79242;BME280;68670;48.720;9.118;2023-04-01T02:05:57;95527.44;;;6.87;80.65
79242;BME280;68670;48.720;9.118;2023-04-01T02:10:58;95540.19;;;6.81;80.57
79242;BME280;68670;48.720;9.118;2023-04-01T02:13:31;95538.78;;;6.79;81.40
79242;BME280;68670;48.720;9.118;2023-04-01T02:16:03;95526.69;;;6.69;80.81
79242;BME280;68670;48.720;9.118;2023-04-01T02:18:35;95530.31;;;6.75;81.03
79242;BME280;68670;48.720;9.118;2023-04-01T02:21:03;95539.38;;;6.81;80.48
79242;BME280;68670;48.720;9.118;2023-04-01T02:23:36;95533.97;;;6.86;79.46
79242;BME280;68670;48.720;9.118;2023-04-01T02:26:06;95538.81;;;6.84;80.45
79242;BME280;68670;48.720;9.118;2023-04-01T02:28:36;95548.47;;;6.69;80.40
79242;BME280;68670;48.720;9.118;2023-04-01T02:31:05;95540.47;;;6.85;79.08
79242;BME280;68670;48.720;9.118;2023-04-01T02:33:31;95545.31;;;6.78;79.99
79242;BME280;68670;48.720;9.118;2023-04-01T02:35:57;95542.00;;;6.76;79.63
79242;BME280;68670;48.720;9.118;2023-04-01T02:38:27;95546.50;;;6.87;78.74
79242;BME280;68670;48.720;9.118;2023-04-01T02:40:58;95542.00;;;6.76;79.25
79242;BME280;68670;48.720;9.118;2023-04-01T02:43:24;95537.41;;;6.76;79.09
79242;BME280;68670;48.720;9.118;2023-04-01T02:45:54;95540.53;;;6.68;79.31
79242;BME280;68670;48.720;9.118;2023-04-01T02:48:22;95546.81;;;6.68;79.44
79242;BME280;68670;48.720;9.118;2023-04-01T02:50:48;95538.06;;;6.66;79.41
79242;BME280;68670;48.720;9.118;2023-04-01T02:53:15;95537.06;;;6.72;78.83
79242;BME280;68670;48.720;9.118;2023-04-01T02:55:41;95529.84;;;6.61;79.04
79242;BME280;68670;48.720;9.118;2023-04-01T02:58:11;95537.91;;;6.73;78.12
79242;BME280;68670;48.720;9.118;2023-04-01T03:00:37;95521.09;;;6.59;78.36
79242;BME280;68670;48.720;9.118;2023-04-01T03:03:02;95530.34;;;6.58;78.77
79242;BME280;68670;48.720;9.118;2023-04-01T03:05:28;95535.22;;;6.56;79.23
79242;BME280;68670;48.720;9.118;2023-04-01T03:07:53;95529.84;;;6.61;78.64
79242;BME280;68670;48.720;9.118;2023-04-01T03:10:23;95536.94;;;6.62;78.65
79242;BME280;68670;48.720;9.118;2023-04-01T03:12:54;95529.66;;;6.68;77.44
79242;BME280;68670;48.720;9.118;2023-04-01T03:15:21;95530.50;;;6.68;78.48
79242;BME280;68670;48.720;9.118;2023-04-01T03:17:46;95534.84;;;6.69;78.11
79242;BME280;68670;48.720;9.118;2023-04-01T03:20:14;95533.63;;;6.60;78.32
79242;BME280;68670;48.720;9.118;2023-04-01T03:22:40;95526.56;;;6.59;78.00
79242;BME280;68670;48.720;9.118;2023-04-01T03:25:05;95536.44;;;6.65;78.05
79242;BME280;68670;48.720;9.118;2023-04-01T03:27:31;95541.22;;;6.58;78.58
79242;BME280;68670;48.720;9.118;2023-04-01T03:29:58;95536.44;;;6.65;77.88
79242;BME280;68670;48.720;9.118;2023-04-01T03:32:24;95533.13;;;6.63;77.17
79242;BME280;68670;48.720;9.118;2023-04-01T03:34:49;95539.66;;;6.62;77.96
79242;BME280;68670;48.720;9.118;2023-04-01T03:37:14;95539.06;;;6.60;78.17
79242;BME280;68670;48.720;9.118;2023-04-01T03:39:44;95544.53;;;6.60;77.19
79242;BME280;68670;48.720;9.118;2023-04-01T03:42:11;95539.16;;;6.65;77.35
79242;BME280;68670;48.720;9.118;2023-04-01T03:44:36;95535.84;;;6.63;77.38
79242;BME280;68670;48.720;9.118;2023-04-01T03:47:02;95543.88;;;6.53;78.27
79242;BME280;68670;48.720;9.118;2023-04-01T03:49:30;95529.66;;;6.46;78.22
79242;BME280;68670;48.720;9.118;2023-04-01T03:51:59;95525.91;;;6.52;78.24
79242;BME280;68670;48.720;9.118;2023-04-01T03:54:27;95538.50;;;6.58;77.54
79242;BME280;68670;48.720;9.118;2023-04-01T03:56:54;95516.66;;;6.53;76.86
79242;BME280;68670;48.720;9.118;2023-04-01T03:59:20;95518.56;;;6.53;77.08
79242;BME280;68670;48.720;9.118;2023-04-01T04:01:46;95526.56;;;6.59;76.64
79242;BME280;68670;48.720;9.118;2023-04-01T04:04:11;95524.22;;;6.46;77.17
79242;BME280;68670;48.720;9.118;2023-04-01T04:06:39;95514.72;;;6.49;76.71
79242;BME280;68670;48.720;9.118;2023-04-01T04:09:04;95513.91;;;6.48;76.57
79242;BME280;68670;48.720;9.118;2023-04-01T04:11:31;95509.00;;;6.28;77.01
79242;BME280;68670;48.720;9.118;2023-04-01T04:14:02;95512.94;;;6.21;77.01
79242;BME280;68670;48.720;9.118;2023-04-01T04:16:27;95517.41;;;6.27;77.29
79242;BME280;68670;48.720;9.118;2023-04-01T04:18:55;95523.31;;;6.24;77.49
79242;BME280;68670;48.720;9.118;2023-04-01T04:21:23;95516.25;;;6.23;77.36
79242;BME280;68670;48.720;9.118;2023-04-01T04:23:48;95527.19;;;6.28;77.13
79242;BME280;68670;48.720;9.118;2023-04-01T04:26:14;95523.66;;;6.27;76.89
79242;BME280;68670;48.720;9.118;2023-04-01T04:28:40;95516.69;;;6.15;77.88
79242;BME280;68670;48.720;9.118;2023-04-01T04:31:05;95518.88;;;6.18;77.40
79242;BME280;68670;48.720;9.118;2023-04-01T04:33:34;95519.91;;;6.12;77.63
79242;BME280;68670;48.720;9.118;2023-04-01T04:36:00;95516.59;;;6.10;77.62
79242;BME280;68670;48.720;9.118;2023-04-01T04:38:26;95515.94;;;6.02;78.21
79242;BME280;68670;48.720;9.118;2023-04-01T04:40:52;95518.81;;;5.96;78.65
79242;BME280;68670;48.720;9.118;2023-04-01T04:43:17;95513.72;;;5.99;78.43
79242;BME280;68670;48.720;9.118;2023-04-01T04:45:43;95515.03;;;5.97;78.32
79242;BME280;68670;48.720;9.118;2023-04-01T04:48:09;95510.69;;;6.13;77.91
79242;BME280;68670;48.720;9.118;2023-04-01T04:50:39;95514.31;;;6.01;78.64
79242;BME280;68670;48.720;9.118;2023-04-01T04:53:05;95507.72;;;5.97;78.36
79242;BME280;68670;48.720;9.118;2023-04-01T04:55:35;95504.50;;;6.00;78.82
79242;BME280;68670;48.720;9.118;2023-04-01T04:58:02;95499.31;;;5.99;78.97
79242;BME280;68670;48.720;9.118;2023-04-01T05:00:27;95510.19;;;5.99;79.18
79242;BME280;68670;48.720;9.118;2023-04-01T05:02:55;95507.13;;;5.95;79.51
79242;BME280;68670;48.720;9.118;2023-04-01T05:05:21;95499.66;;;6.02;79.18
79242;BME280;68670;48.720;9.118;2023-04-01T05:07:46;95503.91;;;6.15;79.34
79242;BME280;68670;48.720;9.118;2023-04-01T05:10:11;95503.22;;;6.25;78.40
79242;BME280;68670;48.720;9.118;2023-04-01T05:12:36;95502.47;;;6.29;78.36
79242;BME280;68670;48.720;9.118;2023-04-01T05:15:07;95499.09;;;6.22;79.41
79242;BME280;68670;48.720;9.118;2023-04-01T05:17:36;95491.19;;;6.21;78.82
79242;BME280;68670;48.720;9.118;2023-04-01T05:20:04;95497.50;;;6.43;78.28
79242;BME280;68670;48.720;9.118;2023-04-01T05:22:32;95498.59;;;6.42;78.06
79242;BME280;68670;48.720;9.118;2023-04-01T05:24:57;95490.19;;;6.44;78.10
79242;BME280;68670;48.720;9.118;2023-04-01T05:27:25;95478.81;;;6.47;77.98
79242;BME280;68670;48.720;9.118;2023-04-01T05:29:50;95482.28;;;6.42;78.50
79242;BME280;68670;48.720;9.118;2023-04-01T05:32:16;95485.25;;;6.40;77.92
79242;BME280;68670;48.720;9.118;2023-04-01T05:34:43;95490.09;;;6.60;76.69
79242;BME280;68670;48.720;9.118;2023-04-01T05:37:09;95495.88;;;6.64;76.90
79242;BME280;68670;48.720;9.118;2023-04-01T05:39:37;95491.56;;;6.68;76.32
79242;BME280;68670;48.720;9.118;2023-04-01T05:42:07;95486.78;;;6.75;76.21
79242;BME280;68670;48.720;9.118;2023-04-01T05:44:35;95483.22;;;6.74;75.94
79242;BME280;68670;48.720;9.118;2023-04-01T05:47:04;95488.72;;;6.80;75.36
79242;BME280;68670;48.720;9.118;2023-04-01T05:49:29;95475.06;;;6.74;75.74
79242;BME280;68670;48.720;9.118;2023-04-01T05:51:55;95480.31;;;6.81;75.33
79242;BME280;68670;48.720;9.118;2023-04-01T05:54:20;95483.91;;;6.87;75.47
79242;BME280;68670;48.720;9.118;2023-04-01T05:56:45;95490.97;;;6.88;74.33
79242;BME280;68670;48.720;9.118;2023-04-01T05:59:16;95485.34;;;6.94;74.08
79242;BME280;68670;48.720;9.118;2023-04-01T06:01:41;95489.97;;;6.94;74.79
79242;BME280;68670;48.720;9.118;2023-04-01T06:04:06;95479.28;;;6.87;74.08
79242;BME280;68670;48.720;9.118;2023-04-01T06:06:34;95463.59;;;6.94;73.92
79242;BME280;68670;48.720;9.118;2023-04-01T06:09:31;95472.13;;;7.03;73.22
79242;BME280;68670;48.720;9.118;2023-04-01T06:14:43;95454.50;;;7.11;72.69
79242;BME280;68670;48.720;9.118;2023-04-01T06:17:26;95460.28;;;7.19;72.49
79242;BME280;68670;48.720;9.118;2023-04-01T06:26:03;95456.66;;;7.35;72.09
79242;BME280;68670;48.720;9.118;2023-04-01T06:45:30;95476.22;;;7.32;72.99
79242;BME280;68670;48.720;9.118;2023-04-01T06:56:06;95473.06;;;7.40;72.74
79242;BME280;68670;48.720;9.118;2023-04-01T06:58:37;95466.97;;;7.33;73.16
79242;BME280;68670;48.720;9.118;2023-04-01T07:01:08;95464.25;;;7.33;73.05
79242;BME280;68670;48.720;9.118;2023-04-01T07:03:44;95473.09;;;7.46;72.31
79242;BME280;68670;48.720;9.118;2023-04-01T07:06:19;95474.78;;;7.52;72.53
79242;BME280;68670;48.720;9.118;2023-04-01T07:08:49;95470.97;;;7.53;72.03
79242;BME280;68670;48.720;9.118;2023-04-01T07:11:31;95475.34;;;7.54;72.33
79242;BME280;68670;48.720;9.118;2023-04-01T07:14:22;95483.19;;;7.50;72.46
79242;BME280;68670;48.720;9.118;2023-04-01T07:17:06;95474.78;;;7.52;72.02
79242;BME280;68670;48.720;9.118;2023-04-01T07:22:21;95473.69;;;7.53;72.49
79242;BME280;68670;48.720;9.118;2023-04-01T07:24:49;95468.19;;;7.48;73.20
79242;BME280;68670;48.720;9.118;2023-04-01T07:27:15;95471.53;;;7.55;72.96
79242;BME280;68670;48.720;9.118;2023-04-01T07:29:41;95471.00;;;7.58;72.88
79242;BME280;68670;48.720;9.118;2023-04-01T07:32:25;95482.94;;;7.52;71.87
79242;BME280;68670;48.720;9.118;2023-04-01T07:37:52;95484.59;;;7.53;72.85
79242;BME280;68670;48.720;9.118;2023-04-01T07:40:45;95497.38;;;7.52;73.31
79242;BME280;68670;48.720;9.118;2023-04-01T07:53:58;95489.06;;;7.64;72.62
79242;BME280;68670;48.720;9.118;2023-04-01T07:56:59;95492.75;;;7.80;71.92
79242;BME280;68670;48.720;9.118;2023-04-01T08:10:51;95506.41;;;7.85;72.78
79242;BME280;68670;48.720;9.118;2023-04-01T08:22:03;95503.88;;;7.73;74.40
79242;BME280;68670;48.720;9.118;2023-04-01T08:24:44;95514.00;;;7.78;73.45
79242;BME280;68670;48.720;9.118;2023-04-01T08:27:34;95505.63;;;7.89;74.04
79242;BME280;68670;48.720;9.118;2023-04-01T08:32:35;95522.94;;;8.05;74.30
79242;BME280;68670;48.720;9.118;2023-04-01T08:35:31;95514.88;;;7.88;73.92
79242;BME280;68670;48.720;9.118;2023-04-01T08:38:06;95536.47;;;7.63;74.57
79242;BME280;68670;48.720;9.118;2023-04-01T08:56:22;95521.50;;;6.90;81.59
79242;BME280;68670;48.720;9.118;2023-04-01T09:10:31;95508.16;;;7.15;81.12
79242;BME280;68670;48.720;9.118;2023-04-01T09:13:29;95514.63;;;7.31;78.17
79242;BME280;68670;48.720;9.118;2023-04-01T09:19:48;95522.84;;;7.63;77.02
79242;BME280;68670;48.720;9.118;2023-04-01T09:22:22;95529.69;;;7.65;77.30
79242;BME280;68670;48.720;9.118;2023-04-01T09:25:20;95526.03;;;7.87;76.00
79242;BME280;68670;48.720;9.118;2023-04-01T09:28:10;95534.72;;;8.11;75.33
79242;BME280;68670;48.720;9.118;2023-04-01T09:31:10;95535.44;;;8.33;74.06
79242;BME280;68670;48.720;9.118;2023-04-01T09:33:56;95531.47;;;8.19;73.37
79242;BME280;68670;48.720;9.118;2023-04-01T09:39:26;95536.72;;;7.93;75.15
79242;BME280;68670;48.720;9.118;2023-04-01T09:42:22;95531.69;;;7.80;74.32
79242;BME280;68670;48.720;9.118;2023-04-01T09:45:15;95541.72;;;7.69;73.93
79242;BME280;68670;48.720;9.118;2023-04-01T09:48:05;95554.63;;;7.79;75.14
79242;BME280;68670;48.720;9.118;2023-04-01T10:12:10;95550.66;;;7.65;73.86
79242;BME280;68670;48.720;9.118;2023-04-01T10:23:18;95561.84;;;7.95;73.65
79242;BME280;68670;48.720;9.118;2023-04-01T10:51:19;95559.91;;;8.60;68.00
79242;BME280;68670;48.720;9.118;2023-04-01T10:54:20;95555.88;;;8.72;66.18
79242;BME280;68670;48.720;9.118;2023-04-01T10:56:59;95569.53;;;8.72;65.37
79242;BME280;68670;48.720;9.118;2023-04-01T11:22:10;95562.50;;;8.87;66.37
79242;BME280;68670;48.720;9.118;2023-04-01T11:27:42;95570.75;;;8.97;65.46
79242;BME280;68670;48.720;9.118;2023-04-01T11:43:49;95574.47;;;9.33;63.98
79242;BME280;68670;48.720;9.118;2023-04-01T12:03:10;95591.72;;;9.38;63.95
79242;BME280;68670;48.720;9.118;2023-04-01T12:08:21;95586.44;;;9.22;64.15
79242;BME280;68670;48.720;9.118;2023-04-01T12:10:56;95590.56;;;9.29;64.39
79242;BME280;68670;48.720;9.118;2023-04-01T12:21:25;95597.06;;;9.18;65.36
79242;BME280;68670;48.720;9.118;2023-04-01T12:29:57;95599.84;;;9.23;66.91
79242;BME280;68670;48.720;9.118;2023-04-01T12:33:04;95599.41;;;9.57;66.25
79242;BME280;68670;48.720;9.118;2023-04-01T12:41:23;95605.78;;;9.88;63.69
79242;BME280;68670;48.720;9.118;2023-04-01T12:47:16;95593.03;;;10.39;62.46
79242;BME280;68670;48.720;9.118;2023-04-01T12:55:46;95600.69;;;10.52;61.54
79242;BME280;68670;48.720;9.118;2023-04-01T12:58:36;95596.81;;;10.73;61.13
79242;BME280;68670;48.720;9.118;2023-04-01T13:17:34;95611.81;;;9.95;62.14
79242;BME280;68670;48.720;9.118;2023-04-01T13:23:05;95619.75;;;9.91;63.13
79242;BME280;68670;48.720;9.118;2023-04-01T13:28:17;95610.47;;;10.02;62.15
79242;BME280;68670;48.720;9.118;2023-04-01T13:31:09;95632.03;;;9.89;62.80
79242;BME280;68670;48.720;9.118;2023-04-01T13:33:56;95624.97;;;9.98;62.26
79242;BME280;68670;48.720;9.118;2023-04-01T13:36:30;95629.06;;;10.00;62.60
79242;BME280;68670;48.720;9.118;2023-04-01T13:39:15;95632.34;;;9.97;62.26
79242;BME280;68670;48.720;9.118;2023-04-01T13:47:30;95642.75;;;10.00;62.13
79242;BME280;68670;48.720;9.118;2023-04-01T13:50:26;95618.97;;;10.06;61.56
79242;BME280;68670;48.720;9.118;2023-04-01T13:56:16;95632.44;;;10.48;60.95
79242;BME280;68670;48.720;9.118;2023-04-01T13:59:01;95637.91;;;10.28;60.60
79242;BME280;68670;48.720;9.118;2023-04-01T14:01:43;95630.72;;;10.17;60.97
79242;BME280;68670;48.720;9.118;2023-04-01T14:04:59;95643.56;;;10.11;61.22
79242;BME280;68670;48.720;9.118;2023-04-01T14:10:43;95648.22;;;10.00;62.35
79242;BME280;68670;48.720;9.118;2023-04-01T14:16:30;95648.66;;;9.67;63.74
79242;BME280;68670;48.720;9.118;2023-04-01T14:19:49;95654.13;;;9.67;64.34
79242;BME280;68670;48.720;9.118;2023-04-01T14:22:03;95638.84;;;9.71;64.61
79242;BME280;68670;48.720;9.118;2023-04-01T14:28:12;95647.03;;;9.66;64.19
79242;BME280;68670;48.720;9.118;2023-04-01T14:33:41;95658.59;;;9.93;63.83
79242;BME280;68670;48.720;9.118;2023-04-01T14:41:44;95649.19;;;9.59;61.77
79242;BME280;68670;48.720;9.118;2023-04-01T14:47:17;95655.22;;;9.66;62.45
79242;BME280;68670;48.720;9.118;2023-04-01T14:49:51;95657.72;;;9.72;62.69
79242;BME280;68670;48.720;9.118;2023-04-01T14:52:28;95651.06;;;9.53;63.28
79242;BME280;68670;48.720;9.118;2023-04-01T14:54:56;95655.69;;;9.53;63.59
79242;BME280;68670;48.720;9.118;2023-04-01T15:00:20;95652.44;;;9.56;63.02
79242;BME280;68670;48.720;9.118;2023-04-01T15:08:24;95654.53;;;9.33;63.96
79242;BME280;68670;48.720;9.118;2023-04-01T15:11:03;95654.00;;;9.36;63.95
79242;BME280;68670;48.720;9.118;2023-04-01T15:24:21;95681.94;;;9.54;63.87
79242;BME280;68670;48.720;9.118;2023-04-01T15:27:05;95675.91;;;9.47;63.58
79242;BME280;68670;48.720;9.118;2023-04-01T15:35:19;95681.34;;;9.36;63.84
79242;BME280;68670;48.720;9.118;2023-04-01T15:40:23;95686.28;;;9.44;64.55
79242;BME280;68670;48.720;9.118;2023-04-01T16:16:08;95718.69;;;8.89;67.46
79242;BME280;68670;48.720;9.118;2023-04-01T16:21:36;95717.78;;;8.78;68.43
79242;BME280;68670;48.720;9.118;2023-04-01T16:29:57;95710.97;;;8.81;68.19
79242;BME280;68670;48.720;9.118;2023-04-01T16:32:40;95715.41;;;8.87;68.26
79242;BME280;68670;48.720;9.118;2023-04-01T16:40:44;95715.97;;;8.89;67.84
79242;BME280;68670;48.720;9.118;2023-04-01T16:46:26;95720.34;;;8.90;67.44
79242;BME280;68670;48.720;9.118;2023-04-01T16:49:03;95719.31;;;8.96;67.66
79242;BME280;68670;48.720;9.118;2023-04-01T16:54:27;95725.94;;;9.05;67.18
79242;BME280;68670;48.720;9.118;2023-04-01T16:59:37;95729.22;;;9.07;66.49
79242;BME280;68670;48.720;9.118;2023-04-01T17:02:12;95731.41;;;9.10;66.29
79242;BME280;68670;48.720;9.118;2023-04-01T17:18:07;95746.44;;;9.07;66.63
79242;BME280;68670;48.720;9.118;2023-04-01T17:20:43;95747.53;;;9.12;66.65
79242;BME280;68670;48.720;9.118;2023-04-01T17:23:34;95750.53;;;9.10;66.65
79242;BME280;68670;48.720;9.118;2023-04-01T17:26:27;95749.38;;;9.01;67.36
79242;BME280;68670;48.720;9.118;2023-04-01T17:29:11;95744.50;;;9.03;67.17
79242;BME280;68670;48.720;9.118;2023-04-01T17:34:21;95759.19;;;8.97;67.48
79242;BME280;68670;48.720;9.118;2023-04-01T17:39:33;95764.13;;;9.00;67.52
79242;BME280;68670;48.720;9.118;2023-04-01T17:56:08;95779.22;;;8.75;68.54
79242;BME280;68670;48.720;9.118;2023-04-01T18:01:45;95791.50;;;8.78;69.61
79242;BME280;68670;48.720;9.118;2023-04-01T18:23:46;95830.22;;;8.26;73.42
79242;BME280;68670;48.720;9.118;2023-04-01T18:26:26;95838.59;;;8.20;73.78
79242;BME280;68670;48.720;9.118;2023-04-01T18:28:59;95839.50;;;8.03;72.40
79242;BME280;68670;48.720;9.118;2023-04-01T18:31:41;95840.81;;;7.79;71.69
79242;BME280;68670;48.720;9.118;2023-04-01T18:36:56;95849.06;;;7.67;72.59
79242;BME280;68670;48.720;9.118;2023-04-01T18:39:47;95840.56;;;7.64;72.27
79242;BME280;68670;48.720;9.118;2023-04-01T18:42:38;95851.06;;;7.72;72.56
79242;BME280;68670;48.720;9.118;2023-04-01T18:47:44;95858.00;;;7.63;71.60
79242;BME280;68670;48.720;9.118;2023-04-01T18:50:38;95866.19;;;7.63;71.50
79242;BME280;68670;48.720;9.118;2023-04-01T18:53:24;95862.78;;;7.56;71.39
79242;BME280;68670;48.720;9.118;2023-04-01T18:56:10;95867.16;;;7.57;71.00
79242;BME280;68670;48.720;9.118;2023-04-01T18:58:52;95870.59;;;7.47;70.84
79242;BME280;68670;48.720;9.118;2023-04-01T19:06:32;95865.94;;;7.48;70.97
79242;BME280;68670;48.720;9.118;2023-04-01T19:09:14;95868.75;;;7.36;71.53
79242;BME280;68670;48.720;9.118;2023-04-01T19:12:04;95865.28;;;7.24;71.89
79242;BME280;68670;48.720;9.118;2023-04-01T19:14:37;95862.91;;;7.27;71.91
79242;BME280;68670;48.720;9.118;2023-04-01T19:21:58;95870.16;;;7.22;72.43
79242;BME280;68670;48.720;9.118;2023-04-01T19:27:15;95867.91;;;7.19;72.78
79242;BME280;68670;48.720;9.118;2023-04-01T19:30:10;95875.69;;;7.27;72.41
79242;BME280;68670;48.720;9.118;2023-04-01T19:35:58;95873.53;;;7.12;73.49
79242;BME280;68670;48.720;9.118;2023-04-01T19:38:36;95876.84;;;7.14;73.44
79242;BME280;68670;48.720;9.118;2023-04-01T19:41:27;95871.22;;;7.21;73.11
79242;BME280;68670;48.720;9.118;2023-04-01T19:44:01;95873.03;;;7.15;73.32
79242;BME280;68670;48.720;9.118;2023-04-01T19:46:38;95869.56;;;7.20;73.37
79242;BME280;68670;48.720;9.118;2023-04-01T19:49:49;95870.59;;;7.14;73.30
79242;BME280;68670;48.720;9.118;2023-04-01T19:52:31;95886.41;;;7.17;73.38
79242;BME280;68670;48.720;9.118;2023-04-01T19:58:36;95888.22;;;7.28;72.65
79242;BME280;68670;48.720;9.118;2023-04-01T20:00:57;95897.63;;;7.20;73.02
79242;BME280;68670;48.720;9.118;2023-04-01T20:03:46;95905.78;;;7.20;73.38
79242;BME280;68670;48.720;9.118;2023-04-01T20:11:50;95916.09;;;7.18;73.30
79242;BME280;68670;48.720;9.118;2023-04-01T20:19:59;95923.88;;;7.10;73.95
79242;BME280;68670;48.720;9.118;2023-04-01T20:25:37;95923.69;;;7.16;73.63
79242;BME280;68670;48.720;9.118;2023-04-01T20:28:44;95928.50;;;7.09;74.03
79242;BME280;68670;48.720;9.118;2023-04-01T20:31:24;95935.59;;;7.10;74.15
79242;BME280;68670;48.720;9.118;2023-04-01T20:33:58;95941.88;;;7.11;73.93
79242;BME280;68670;48.720;9.118;2023-04-01T20:36:58;95940.53;;;7.13;74.12
79242;BME280;68670;48.720;9.118;2023-04-01T20:45:30;95938.47;;;7.20;73.68
79242;BME280;68670;48.720;9.118;2023-04-01T20:50:53;95949.44;;;7.08;74.66
79242;BME280;68670;48.720;9.118;2023-04-01T20:53:54;95951.09;;;7.10;74.82
79242;BME280;68670;48.720;9.118;2023-04-01T20:59:33;95947.94;;;7.01;75.17
79242;BME280;68670;48.720;9.118;2023-04-01T21:02:23;95957.63;;;7.08;75.04
79242;BME280;68670;48.720;9.118;2023-04-01T21:08:02;95958.03;;;7.17;74.74
79242;BME280;68670;48.720;9.118;2023-04-01T21:21:18;95960.16;;;7.15;75.36
79242;BME280;68670;48.720;9.118;2023-04-01T21:32:53;95961.66;;;7.23;75.24
79242;BME280;68670;48.720;9.118;2023-04-01T21:35:48;95961.31;;;7.19;75.25
79242;BME280;68670;48.720;9.118;2023-04-01T21:38:44;95974.06;;;7.30;74.09
79242;BME280;68670;48.720;9.118;2023-04-01T21:44:25;95970.91;;;7.22;74.01
79242;BME280;68670;48.720;9.118;2023-04-01T22:11:58;95993.97;;;7.31;71.54
79242;BME280;68670;48.720;9.118;2023-04-01T22:14:33;95990.31;;;7.25;71.28
79242;BME280;68670;48.720;9.118;2023-04-01T22:17:16;96004.41;;;7.22;71.72
79242;BME280;68670;48.720;9.118;2023-04-01T22:23:00;95993.63;;;7.27;71.64
79242;BME280;68670;48.720;9.118;2023-04-01T22:28:03;96003.44;;;7.28;71.83
79242;BME280;68670;48.720;9.118;2023-04-01T22:32:58;95990.91;;;7.27;71.72
79242;BME280;68670;48.720;9.118;2023-04-01T22:41:21;96010.75;;;7.11;72.30
79242;BME280;68670;48.720;9.118;2023-04-01T22:43:51;96005.38;;;7.16;72.00
79242;BME280;68670;48.720;9.118;2023-04-01T22:51:49;96007.56;;;7.14;72.19
79242;BME280;68670;48.720;9.118;2023-04-01T22:55:10;96018.94;;;7.11;72.59
79242;BME280;68670;48.720;9.118;2023-04-01T22:57:18;96009.97;;;6.99;72.86
79242;BME280;68670;48.720;9.118;2023-04-01T23:03:12;96013.44;;;6.83;73.26
79242;BME280;68670;48.720;9.118;2023-04-01T23:05:43;96018.31;;;6.81;73.59
79242;BME280;68670;48.720;9.118;2023-04-01T23:13:53;96027.31;;;6.69;73.69
79242;BME280;68670;48.720;9.118;2023-04-01T23:16:29;96037.50;;;6.62;74.11
79242;BME280;68670;48.720;9.118;2023-04-01T23:19:02;96028.28;;;6.63;74.16
79242;BME280;68670;48.720;9.118;2023-04-01T23:21:51;96045.09;;;6.60;74.45
79242;BME280;68670;48.720;9.118;2023-04-01T23:29:41;96039.91;;;6.47;74.90
79242;BME280;68670;48.720;9.118;2023-04-01T23:32:17;96050.78;;;6.47;75.03
79242;BME280;68670;48.720;9.118;2023-04-01T23:34:48;96052.22;;;6.38;75.34
79242;BME280;68670;48.720;9.118;2023-04-01T23:37:16;96057.53;;;6.33;75.60
79242;BME280;68670;48.720;9.118;2023-04-01T23:39:50;96063.09;;;6.38;75.48
79242;BME280;68670;48.720;9.118;2023-04-01T23:43:01;96064.03;;;6.32;75.85
79242;BME280;68670;48.720;9.118;2023-04-01T23:45:17;96061.66;;;6.24;76.12